PVD weather

Theodore Francis Green State Airport
Providence, Rhode Island, United States

Public forecast

Using degrees Fahrenheit for public forecast. Weather courtesy of forecast.io.

Current aviation weather report (METAR) for Theodore Francis Green State Airport

Retrieved 2019/10/13 22:51 UTC (44 minutes ago):

KPVD 132251Z 18003KT 10SM FEW100 FEW200 BKN250 BKN300 14/11 A3004 RMK AO2 SLP171 T01440106

Aviation forecast (TAF) for Theodore Francis Green State Airport

Retrieved 2019/10/13 18:36 UTC (5 hours ago):

TAF KPVD 131734Z 1318/1418 29004KT P6SM FEW045 BKN250 FM132000 22004KT P6SM FEW045 FM140700 15003KT P6SM BKN045 FM141300 11004KT P6SM BKN020